Time;durP1;ratioP1;P1;durP2;ratioP2;P2;SDS_P1;SDS_P2;PMS_P1;PMS_P2;Temp;Humidity;BMP_temperature;BMP_pressure;BME280_temperature;BME280_humidity;BME280_pressure;Samples;Min_cycle;Max_cycle;Signal;HPM_P1;HPM_P2
2020/12/01 00:00:08;;;;;;;8.23;4.53;;;17.40;53.20;;;;;;5058349;28;20172;-87
2020/12/01 00:02:35;;;;;;;6.80;4.22;;;17.50;53.60;;;;;;5058460;28;20176;-87
2020/12/01 00:05:01;;;;;;;6.00;4.18;;;17.50;53.10;;;;;;5076134;28;20730;-87
2020/12/01 00:07:26;;;;;;;6.97;4.40;;;17.40;53.10;;;;;;5091923;28;20232;-87
2020/12/01 00:09:53;;;;;;;6.25;4.22;;;17.40;53.40;;;;;;5058845;28;20188;-87
2020/12/01 00:12:19;;;;;;;7.22;3.97;;;17.40;53.40;;;;;;5075230;28;20306;-87
2020/12/01 00:14:44;;;;;;;5.55;3.85;;;17.40;53.30;;;;;;5092285;28;20177;-88
2020/12/01 00:17:12;;;;;;;6.03;3.78;;;17.40;53.30;;;;;;5075441;28;20157;-87
2020/12/01 00:19:47;;;;;;;7.20;4.75;;;17.40;53.50;;;;;;5074692;28;20161;-87
2020/12/01 00:22:14;;;;;;;7.97;4.55;;;17.40;53.30;;;;;;5076037;28;20156;-88
2020/12/01 00:24:48;;;;;;;6.47;4.05;;;17.40;53.70;;;;;;5057337;28;20166;-87
2020/12/01 00:27:22;;;;;;;6.30;4.07;;;17.40;53.60;;;;;;5074750;28;20167;-88
2020/12/01 00:29:49;;;;;;;7.53;4.40;;;17.40;53.60;;;;;;5074527;28;20188;-88
2020/12/01 00:32:15;;;;;;;6.20;4.28;;;17.30;53.70;;;;;;5074430;28;20221;-88
2020/12/01 00:34:42;;;;;;;5.88;4.00;;;17.40;53.80;;;;;;5074877;28;20158;-87
2020/12/01 00:37:09;;;;;;;6.90;4.18;;;17.40;53.80;;;;;;5074426;28;20655;-88
2020/12/01 00:39:37;;;;;;;6.38;3.95;;;17.30;53.70;;;;;;5074389;28;20623;-87
2020/12/01 00:42:05;;;;;;;6.45;4.22;;;17.40;53.60;;;;;;5074431;28;20659;-87
2020/12/01 00:44:32;;;;;;;6.15;4.30;;;17.40;53.60;;;;;;5058330;28;20252;-87
2020/12/01 00:46:57;;;;;;;7.97;4.40;;;17.40;53.80;;;;;;5074691;28;20173;-88
2020/12/01 00:49:23;;;;;;;6.35;4.05;;;17.30;53.60;;;;;;5074664;28;20161;-88
2020/12/01 00:51:49;;;;;;;7.65;4.28;;;17.40;53.60;;;;;;5074309;28;20239;-87
2020/12/01 00:54:16;;;;;;;6.07;4.10;;;17.40;53.90;;;;;;5057336;28;20642;-87
2020/12/01 00:56:42;;;;;;;5.97;4.28;;;17.40;53.70;;;;;;5073951;28;20166;-87
2020/12/01 00:59:11;;;;;;;7.70;4.40;;;17.40;53.50;;;;;;5073980;28;20252;-87
2020/12/01 01:01:37;;;;;;;7.03;4.50;;;17.40;53.70;;;;;;5073841;28;20272;-88
2020/12/01 01:04:03;;;;;;;7.15;3.78;;;17.40;53.70;;;;;;5091228;28;20185;-87
2020/12/01 01:06:29;;;;;;;6.70;4.10;;;17.40;53.80;;;;;;5090897;28;20150;-87
2020/12/01 01:08:55;;;;;;;5.45;4.13;;;17.40;53.70;;;;;;5057115;28;20173;-87
2020/12/01 01:11:31;;;;;;;6.88;4.10;;;17.40;53.80;;;;;;5073713;28;20558;-87
2020/12/01 01:13:59;;;;;;;6.10;4.40;;;17.30;53.60;;;;;;5090540;28;20152;-87
2020/12/01 01:16:26;;;;;;;6.78;4.20;;;17.30;53.90;;;;;;5090699;28;20256;-87
2020/12/01 01:18:52;;;;;;;6.47;4.30;;;17.30;53.60;;;;;;5090940;28;20240;-88
2020/12/01 01:21:18;;;;;;;6.60;3.88;;;17.30;53.90;;;;;;5090467;28;20162;-88
2020/12/01 01:23:44;;;;;;;6.68;4.25;;;17.30;53.90;;;;;;5073414;28;20161;-88
2020/12/01 01:26:10;;;;;;;9.18;4.28;;;17.40;53.90;;;;;;5073401;28;20167;-87
2020/12/01 01:28:38;;;;;;;7.80;3.92;;;17.30;53.90;;;;;;5090919;28;20176;-87
2020/12/01 01:31:03;;;;;;;5.40;3.75;;;17.30;53.40;;;;;;5090291;28;20201;-87
2020/12/01 01:33:30;;;;;;;8.23;4.25;;;17.30;53.70;;;;;;5090199;28;20196;-88
2020/12/01 01:35:57;;;;;;;6.10;4.28;;;17.40;53.70;;;;;;5056061;28;20154;-87
2020/12/01 01:38:24;;;;;;;5.85;3.88;;;17.30;53.60;;;;;;5072850;28;20592;-88
2020/12/01 01:40:54;;;;;;;5.80;3.97;;;17.30;53.90;;;;;;5073133;28;20520;-87
2020/12/01 01:43:21;;;;;;;4.80;3.78;;;17.30;53.90;;;;;;5056383;28;20169;-88
2020/12/01 01:45:50;;;;;;;6.13;4.18;;;17.30;53.90;;;;;;5090085;28;20169;-87
2020/12/01 01:48:23;;;;;;;7.80;4.30;;;17.30;53.90;;;;;;5073209;28;20165;-87
2020/12/01 01:51:17;;;;;;;5.82;4.00;;;17.30;53.80;;;;;;5056183;28;20596;-87
2020/12/01 01:53:46;;;;;;;5.88;4.10;;;17.30;53.80;;;;;;5054369;28;20199;-88
2020/12/01 01:56:14;;;;;;;6.40;3.90;;;17.30;54.00;;;;;;5056018;28;20161;-87
2020/12/01 01:58:40;;;;;;;7.72;4.40;;;17.20;53.90;;;;;;5073046;28;20185;-87
2020/12/01 02:01:12;;;;;;;5.88;4.18;;;17.30;54.00;;;;;;5089997;28;20211;-88
2020/12/01 02:03:45;;;;;;;5.55;3.90;;;17.30;54.00;;;;;;5090545;28;20146;-87
2020/12/01 02:06:18;;;;;;;6.40;4.15;;;17.30;54.00;;;;;;5055915;28;20175;-87
2020/12/01 02:08:45;;;;;;;5.13;3.90;;;17.30;54.10;;;;;;5072743;28;20154;-88
2020/12/01 02:11:14;;;;;;;6.65;4.20;;;17.30;54.00;;;;;;5089887;28;20154;-88
2020/12/01 02:14:17;;;;;;;5.68;3.85;;;17.30;53.90;;;;;;5073141;28;20157;-88
2020/12/01 02:16:50;;;;;;;5.72;3.50;;;17.30;53.90;;;;;;5058406;28;20172;-88
2020/12/01 02:19:19;;;;;;;6.65;4.53;;;17.20;53.90;;;;;;5089870;28;20630;-88
2020/12/01 02:21:45;;;;;;;5.10;4.05;;;17.30;54.10;;;;;;5072880;28;20173;-88
2020/12/01 02:24:21;;;;;;;7.00;4.05;;;17.30;54.00;;;;;;5072687;28;20165;-87
2020/12/01 02:26:53;;;;;;;6.13;4.22;;;17.20;54.10;;;;;;5073910;28;20538;-88
2020/12/01 02:29:20;;;;;;;8.45;4.30;;;17.20;54.20;;;;;;5072740;28;20169;-88
2020/12/01 02:31:47;;;;;;;6.18;4.03;;;17.30;53.90;;;;;;5072078;28;20687;-87
2020/12/01 02:34:18;;;;;;;5.43;3.60;;;17.20;54.10;;;;;;5072449;28;20223;-88
2020/12/01 02:36:46;;;;;;;5.78;3.83;;;17.30;54.10;;;;;;5072702;28;20237;-88
2020/12/01 02:39:25;;;;;;;6.78;4.20;;;17.30;54.00;;;;;;5072158;28;20161;-87
2020/12/01 02:41:52;;;;;;;6.72;4.00;;;17.20;53.90;;;;;;5057204;28;20176;-88
2020/12/01 02:44:21;;;;;;;5.43;4.00;;;17.30;54.20;;;;;;5072393;28;20567;-87
2020/12/01 02:46:50;;;;;;;6.63;4.10;;;17.20;54.00;;;;;;5072680;28;20173;-88
2020/12/01 02:49:15;;;;;;;5.78;3.90;;;17.30;54.00;;;;;;5075832;28;20169;-87
2020/12/01 02:51:42;;;;;;;6.47;4.22;;;17.20;54.00;;;;;;5076330;28;20200;-87
2020/12/01 02:54:08;;;;;;;5.93;3.95;;;17.30;54.10;;;;;;5076142;28;20170;-87
2020/12/01 02:56:36;;;;;;;6.57;4.05;;;17.20;54.20;;;;;;5093402;28;20276;-87
2020/12/01 02:59:02;;;;;;;6.25;4.07;;;17.20;54.20;;;;;;5077318;28;20531;-87
2020/12/01 03:01:28;;;;;;;6.75;3.63;;;17.20;54.00;;;;;;5093254;28;20164;-87
2020/12/01 03:03:54;;;;;;;6.53;4.10;;;17.20;54.10;;;;;;5059615;28;20176;-87
2020/12/01 03:06:22;;;;;;;6.10;4.03;;;17.20;54.20;;;;;;5076339;28;20172;-88
2020/12/01 03:08:51;;;;;;;6.13;3.92;;;17.20;54.20;;;;;;5075992;28;20154;-87
2020/12/01 03:11:17;;;;;;;5.72;3.95;;;17.20;54.20;;;;;;5059466;28;20252;-87
2020/12/01 03:13:44;;;;;;;6.32;4.05;;;17.20;54.30;;;;;;5092945;28;20236;-87
2020/12/01 03:16:11;;;;;;;6.22;3.95;;;17.20;54.30;;;;;;5076079;28;20181;-87
2020/12/01 03:18:42;;;;;;;7.10;4.15;;;17.20;54.40;;;;;;5075890;28;20164;-87
2020/12/01 03:21:08;;;;;;;5.70;4.18;;;17.20;54.20;;;;;;5059144;28;20223;-88
2020/12/01 03:23:39;;;;;;;6.80;4.20;;;17.20;54.30;;;;;;5075946;28;20160;-87
2020/12/01 03:26:05;;;;;;;5.25;3.72;;;17.20;54.00;;;;;;5059113;28;20169;-88
2020/12/01 03:28:32;;;;;;;4.60;3.58;;;17.20;54.30;;;;;;5075571;28;20172;-87
2020/12/01 03:30:57;;;;;;;5.55;3.92;;;17.20;54.20;;;;;;5075110;28;20225;-87
2020/12/01 03:33:26;;;;;;;8.10;4.10;;;17.20;54.40;;;;;;5058795;28;20732;-87
2020/12/01 03:35:53;;;;;;;5.63;3.85;;;17.20;54.20;;;;;;5076738;28;20218;-87
2020/12/01 03:38:19;;;;;;;5.30;3.80;;;17.20;54.20;;;;;;5058663;28;20191;-87
2020/12/01 03:40:46;;;;;;;7.93;3.97;;;17.20;54.20;;;;;;5075493;28;20165;-87
2020/12/01 03:43:15;;;;;;;6.00;3.88;;;17.20;54.40;;;;;;5092631;28;20158;-87
2020/12/01 03:45:41;;;;;;;5.85;4.28;;;17.20;54.40;;;;;;5075346;28;20157;-87
2020/12/01 03:48:08;;;;;;;5.93;4.00;;;17.10;54.30;;;;;;5092218;28;20193;-87
2020/12/01 03:50:35;;;;;;;4.80;3.47;;;17.10;54.30;;;;;;5076908;28;20600;-87
2020/12/01 03:53:02;;;;;;;6.18;4.13;;;17.20;54.40;;;;;;5092284;28;20246;-87
2020/12/01 03:55:28;;;;;;;6.80;4.07;;;17.20;54.40;;;;;;5075184;28;20157;-87
2020/12/01 03:57:54;;;;;;;4.90;3.60;;;17.20;54.50;;;;;;5092079;28;20163;-88
2020/12/01 04:00:22;;;;;;;4.68;3.75;;;17.10;54.40;;;;;;5057383;28;20154;-87
2020/12/01 04:02:49;;;;;;;5.30;3.78;;;17.10;54.40;;;;;;5075124;28;20154;-86
2020/12/01 04:05:18;;;;;;;5.63;3.78;;;17.10;54.40;;;;;;5091791;28;20166;-88
2020/12/01 04:07:45;;;;;;;6.85;3.67;;;17.10;54.40;;;;;;5091996;28;20643;-87
2020/12/01 04:10:12;;;;;;;6.38;4.03;;;17.10;54.30;;;;;;5058069;28;20166;-88
2020/12/01 04:12:38;;;;;;;7.20;4.25;;;17.20;54.30;;;;;;5057825;28;20288;-88
2020/12/01 04:15:06;;;;;;;5.05;3.75;;;17.20;54.30;;;;;;5092065;28;20200;-87
2020/12/01 04:17:35;;;;;;;5.97;3.90;;;17.20;54.50;;;;;;5074837;28;20576;-88
2020/12/01 04:20:01;;;;;;;4.95;3.55;;;17.10;54.40;;;;;;5074594;28;20165;-87
2020/12/01 04:22:28;;;;;;;5.53;3.70;;;17.10;54.30;;;;;;5091573;28;20158;-87
2020/12/01 04:24:54;;;;;;;4.85;3.80;;;17.10;54.20;;;;;;5074489;28;20165;-87
2020/12/01 04:27:22;;;;;;;5.22;3.95;;;17.20;54.30;;;;;;5075065;28;20170;-87
2020/12/01 04:29:48;;;;;;;5.30;3.97;;;17.20;54.10;;;;;;5091485;28;20232;-88
2020/12/01 04:32:21;;;;;;;4.68;3.33;;;17.20;54.30;;;;;;5074239;28;20308;-87
2020/12/01 04:34:56;;;;;;;6.18;3.80;;;17.20;54.50;;;;;;5074372;28;20185;-87
2020/12/01 04:37:23;;;;;;;7.15;4.07;;;17.10;54.50;;;;;;5057748;28;20165;-87
2020/12/01 04:39:51;;;;;;;4.85;3.63;;;17.10;54.40;;;;;;5057557;28;20253;-88
2020/12/01 04:42:26;;;;;;;5.63;3.67;;;17.10;54.40;;;;;;5057534;28;20276;-88
2020/12/01 04:44:58;;;;;;;6.93;3.92;;;17.10;54.50;;;;;;5074583;28;20165;-87
2020/12/01 04:47:32;;;;;;;5.18;3.63;;;17.10;54.40;;;;;;5074224;28;20181;-87
2020/12/01 04:50:05;;;;;;;5.68;4.10;;;17.20;54.20;;;;;;5057243;28;20166;-88
2020/12/01 04:52:50;;;;;;;5.45;3.80;;;17.10;54.00;;;;;;5057194;28;20193;-87
2020/12/01 04:55:54;;;;;;;5.22;3.58;;;17.20;53.50;;;;;;5075790;28;20271;-88
2020/12/01 04:59:01;;;;;;;5.30;3.60;;;17.30;53.10;;;;;;5075020;28;20168;-87
2020/12/01 05:01:30;;;;;;;4.63;3.67;;;17.40;52.80;;;;;;5074305;28;20519;-88
2020/12/01 05:04:14;;;;;;;4.30;3.40;;;17.50;52.90;;;;;;5074991;28;20244;-88
2020/12/01 05:09:39;;;;;;;4.95;3.50;;;17.40;53.00;;;;;;5074917;28;20146;-88
2020/12/01 05:12:24;;;;;;;6.05;3.53;;;17.40;52.90;;;;;;5073733;28;20663;-89
2020/12/01 05:15:05;;;;;;;5.90;3.70;;;17.40;52.70;;;;;;5074064;28;20172;-88
2020/12/01 05:17:48;;;;;;;5.43;3.95;;;17.50;52.80;;;;;;5073857;28;20154;-87
2020/12/01 05:20:16;;;;;;;4.88;3.50;;;17.50;52.80;;;;;;5073511;28;20158;-88
2020/12/01 05:22:48;;;;;;;5.53;3.50;;;17.40;52.50;;;;;;5057624;28;20169;-87
2020/12/01 05:25:24;;;;;;;4.63;3.45;;;17.40;52.70;;;;;;5074615;28;20572;-87
2020/12/01 05:27:50;;;;;;;4.75;3.50;;;17.40;53.00;;;;;;5056653;28;20157;-88
2020/12/01 05:30:21;;;;;;;4.60;3.30;;;17.50;52.70;;;;;;5090335;28;20187;-88
2020/12/01 05:33:00;;;;;;;5.20;3.38;;;17.50;52.50;;;;;;5072971;28;20224;-88
2020/12/01 05:35:31;;;;;;;3.97;3.22;;;17.50;52.30;;;;;;5073422;28;20168;-87
2020/12/01 05:38:00;;;;;;;4.53;3.17;;;17.50;52.40;;;;;;5073445;28;20150;-87
2020/12/01 05:40:30;;;;;;;5.93;3.60;;;17.40;52.70;;;;;;5057249;28;20157;-87
2020/12/01 05:42:56;;;;;;;4.13;3.22;;;17.40;52.70;;;;;;5090327;28;20179;-88
2020/12/01 05:45:26;;;;;;;5.07;3.28;;;17.40;52.60;;;;;;5090097;28;20271;-87
2020/12/01 05:48:02;;;;;;;3.65;3.00;;;17.50;52.40;;;;;;5073207;28;20167;-87
2020/12/01 05:50:30;;;;;;;4.43;3.45;;;17.50;52.30;;;;;;5090886;28;20153;-87
2020/12/01 05:53:07;;;;;;;4.55;3.30;;;17.40;52.10;;;;;;5072905;28;20207;-88
2020/12/01 05:55:33;;;;;;;5.18;3.63;;;17.50;52.10;;;;;;5073566;28;20184;-87
2020/12/01 05:58:13;;;;;;;4.57;3.42;;;17.50;51.90;;;;;;5072754;28;20196;-87
2020/12/01 06:00:42;;;;;;;4.47;3.20;;;17.50;52.50;;;;;;5073462;28;20519;-88
2020/12/01 06:03:10;;;;;;;4.53;3.50;;;17.40;52.10;;;;;;5089680;28;20153;-87
2020/12/01 06:05:37;;;;;;;4.38;3.00;;;17.50;52.10;;;;;;5073898;28;20644;-87
2020/12/01 06:08:23;;;;;;;3.78;3.20;;;17.50;52.00;;;;;;5072599;28;20209;-88
2020/12/01 06:10:59;;;;;;;4.38;3.38;;;17.50;52.10;;;;;;5091024;28;20248;-87
2020/12/01 06:13:32;;;;;;;5.80;3.83;;;17.50;51.80;;;;;;5091732;28;20194;-87
2020/12/01 06:16:27;;;;;;;5.10;3.67;;;17.50;52.20;;;;;;5055646;28;20183;-87
2020/12/01 06:19:02;;;;;;;5.30;3.33;;;17.40;52.00;;;;;;5031208;28;20186;-88
2020/12/01 06:21:48;;;;;;;5.95;3.40;;;17.40;52.10;;;;;;5014291;28;20694;-87
2020/12/01 06:24:31;;;;;;;4.43;3.30;;;17.40;52.10;;;;;;4998280;28;20187;-88
2020/12/01 06:27:44;;;;;;;3.70;2.92;;;17.50;52.20;;;;;;4999003;28;20162;-88
2020/12/01 06:30:41;;;;;;;4.03;3.20;;;17.50;51.50;;;;;;5014735;28;20272;-87
2020/12/01 06:33:17;;;;;;;4.88;3.45;;;17.50;51.90;;;;;;5017077;28;20222;-88
2020/12/01 06:35:51;;;;;;;3.50;3.03;;;17.50;51.90;;;;;;5014916;28;20198;-88
2020/12/01 06:38:52;;;;;;;4.75;3.03;;;17.40;52.30;;;;;;4998244;28;20163;-87
2020/12/01 06:41:20;;;;;;;4.18;3.15;;;17.30;51.90;;;;;;4972065;28;20188;-87
2020/12/01 06:43:56;;;;;;;4.20;3.20;;;17.50;51.90;;;;;;4971929;28;20247;-87
2020/12/01 06:46:48;;;;;;;6.22;3.40;;;17.40;51.80;;;;;;4971707;28;20236;-88
2020/12/01 06:49:34;;;;;;;4.45;3.10;;;17.50;51.80;;;;;;4972544;28;20184;-88
2020/12/01 06:52:10;;;;;;;4.35;3.00;;;17.50;51.50;;;;;;4956756;28;20294;-89
2020/12/01 06:54:55;;;;;;;4.00;3.10;;;17.50;51.30;;;;;;4991672;28;20554;-88
2020/12/01 06:57:51;;;;;;;3.47;2.90;;;17.50;51.90;;;;;;4998238;28;20187;-88
2020/12/01 07:00:28;;;;;;;4.40;3.00;;;17.50;51.60;;;;;;4983925;28;20513;-88
2020/12/01 07:02:54;;;;;;;4.78;3.28;;;17.40;51.70;;;;;;4997030;28;20174;-87
2020/12/01 07:05:32;;;;;;;3.83;3.03;;;17.40;51.70;;;;;;4981398;28;20191;-88
2020/12/01 07:07:59;;;;;;;3.70;3.10;;;17.50;51.30;;;;;;5014266;28;20175;-88
2020/12/01 07:10:31;;;;;;;3.92;2.90;;;17.40;51.70;;;;;;5031078;28;20256;-87
2020/12/01 07:13:09;;;;;;;4.65;3.00;;;17.50;51.50;;;;;;5028803;28;20561;-87
2020/12/01 07:15:42;;;;;;;4.00;3.38;;;17.50;53.00;;;;;;4995987;28;20170;-87
2020/12/01 07:18:25;;;;;;;4.28;3.38;;;17.50;54.10;;;;;;5069698;28;20173;-87
2020/12/01 07:21:36;;;;;;;3.55;3.05;;;17.50;53.00;;;;;;5098072;28;20146;-87
2020/12/01 07:24:07;;;;;;;4.22;3.20;;;17.50;53.20;;;;;;5079944;28;20169;-88
2020/12/01 07:26:42;;;;;;;3.70;3.03;;;17.50;52.70;;;;;;5079956;28;20274;-88
2020/12/01 07:29:25;;;;;;;3.97;3.20;;;17.40;52.20;;;;;;5079718;28;20153;-88
2020/12/01 07:31:51;;;;;;;4.20;2.95;;;17.40;52.10;;;;;;5081084;28;20221;-87
2020/12/01 07:34:17;;;;;;;4.13;2.80;;;17.40;52.00;;;;;;5047443;28;20250;-88
2020/12/01 07:37:26;;;;;;;4.32;2.95;;;17.40;52.00;;;;;;5084908;28;20546;-88
2020/12/01 07:39:56;;;;;;;5.85;3.28;;;17.40;52.00;;;;;;5084507;28;20168;-88
2020/12/01 07:42:24;;;;;;;3.55;2.85;;;17.50;51.90;;;;;;5069437;28;20161;-88
2020/12/01 07:44:49;;;;;;;3.03;2.70;;;17.50;52.50;;;;;;5051678;28;20158;-88
2020/12/01 07:47:19;;;;;;;3.92;3.15;;;17.50;51.70;;;;;;5084383;28;20158;-88
2020/12/01 07:49:59;;;;;;;3.50;2.72;;;17.60;51.50;;;;;;5068864;28;20149;-87
2020/12/01 07:52:34;;;;;;;3.70;2.70;;;17.60;51.40;;;;;;5068012;28;20348;-88
2020/12/01 07:55:17;;;;;;;3.70;3.10;;;17.50;51.40;;;;;;5050276;28;20170;-87
2020/12/01 07:57:44;;;;;;;3.42;2.90;;;17.50;51.60;;;;;;5067360;28;20173;-88
2020/12/01 08:00:23;;;;;;;3.80;2.90;;;17.50;51.20;;;;;;5098857;28;20180;-87
2020/12/01 08:03:08;;;;;;;4.20;3.28;;;17.60;51.10;;;;;;5084675;28;20200;-88
2020/12/01 08:05:34;;;;;;;3.95;3.00;;;17.60;51.10;;;;;;5081926;28;20204;-87
2020/12/01 08:08:00;;;;;;;5.32;2.90;;;17.50;51.30;;;;;;5048742;28;20170;-88
2020/12/01 08:10:26;;;;;;;4.13;3.10;;;17.50;51.10;;;;;;5049181;28;20165;-88
2020/12/01 08:12:53;;;;;;;4.60;3.33;;;17.60;51.20;;;;;;5050510;28;20196;-87
2020/12/01 08:15:21;;;;;;;4.00;3.20;;;17.50;51.20;;;;;;5049821;28;20260;-88
2020/12/01 08:17:47;;;;;;;3.42;2.80;;;17.50;51.30;;;;;;5067495;28;20168;-87
2020/12/01 08:20:18;;;;;;;4.03;2.78;;;17.60;51.00;;;;;;5049899;28;20264;-87
2020/12/01 08:22:53;;;;;;;3.03;2.67;;;17.60;51.00;;;;;;5064013;28;20161;-88
2020/12/01 08:25:21;;;;;;;4.97;2.90;;;17.60;50.90;;;;;;5082996;28;20173;-87
2020/12/01 08:28:05;;;;;;;3.88;3.10;;;17.60;51.10;;;;;;5067402;28;20188;-88
2020/12/01 08:30:49;;;;;;;3.58;2.88;;;17.60;50.70;;;;;;5068307;28;20177;-87
2020/12/01 08:33:46;;;;;;;3.67;2.88;;;17.60;50.90;;;;;;5085068;28;20284;-88
2020/12/01 08:36:50;;;;;;;3.40;2.72;;;17.60;51.00;;;;;;5064673;28;20655;-88
2020/12/01 08:39:39;;;;;;;3.85;3.05;;;17.60;51.10;;;;;;5025366;28;20193;-88
2020/12/01 08:42:14;;;;;;;4.88;3.00;;;17.60;51.40;;;;;;4985001;28;20288;-87
2020/12/01 08:45:11;;;;;;;6.28;3.17;;;17.60;50.80;;;;;;4967694;28;20184;-89
2020/12/01 08:47:45;;;;;;;2.92;2.63;;;17.60;50.90;;;;;;4966308;28;20196;-87
2020/12/01 08:50:19;;;;;;;4.63;3.17;;;17.60;50.80;;;;;;4964503;28;20671;-88
2020/12/01 08:52:47;;;;;;;3.35;2.85;;;17.60;50.80;;;;;;4965215;28;20211;-87
2020/12/01 08:55:36;;;;;;;3.38;2.88;;;17.60;50.80;;;;;;4967073;28;20180;-88
2020/12/01 08:58:07;;;;;;;6.35;3.15;;;17.60;50.60;;;;;;4966176;28;20168;-87
2020/12/01 09:00:34;;;;;;;3.55;2.95;;;17.70;50.90;;;;;;4981094;28;20177;-88
2020/12/01 09:03:11;;;;;;;4.28;3.22;;;17.60;50.70;;;;;;4949250;28;20724;-86
2020/12/01 09:05:48;;;;;;;3.97;3.10;;;17.70;50.60;;;;;;4949960;28;20231;-88
2020/12/01 09:14:05;;;;;;;3.67;2.75;;;17.50;51.00;;;;;;4940406;29;20241;-86
2020/12/01 09:22:34;;;;;;;4.05;2.92;;;17.60;50.70;;;;;;5034184;28;20183;-88
2020/12/01 09:25:19;;;;;;;6.22;2.85;;;17.60;50.50;;;;;;5000780;28;20167;-87
2020/12/01 09:27:45;;;;;;;4.38;3.03;;;17.60;50.80;;;;;;5016961;28;20162;-88
2020/12/01 09:30:34;;;;;;;5.50;3.03;;;17.70;50.60;;;;;;5034130;28;20642;-86
2020/12/01 09:33:02;;;;;;;4.07;2.78;;;17.60;50.70;;;;;;5017999;28;20700;-87
2020/12/01 09:35:28;;;;;;;3.10;2.60;;;17.70;50.50;;;;;;5017762;28;20274;-87
2020/12/01 09:37:54;;;;;;;3.58;2.67;;;17.70;50.20;;;;;;5019032;28;20187;-87
2020/12/01 09:40:23;;;;;;;3.95;2.70;;;17.80;50.10;;;;;;5018583;28;20554;-87
2020/12/01 09:42:51;;;;;;;4.15;2.97;;;17.80;50.40;;;;;;5018776;28;20183;-86
2020/12/01 09:47:47;;;;;;;5.30;3.10;;;17.70;50.50;;;;;;5031758;28;20182;-87
2020/12/01 09:50:32;;;;;;;4.15;2.83;;;17.70;50.30;;;;;;5043753;28;20209;-86
2020/12/01 09:53:15;;;;;;;8.98;2.80;;;17.70;50.50;;;;;;5027430;28;20617;-87
2020/12/01 09:55:59;;;;;;;5.65;2.92;;;17.70;50.60;;;;;;5049480;28;20186;-86
2020/12/01 10:04:57;;;;;;;4.40;2.95;;;17.60;50.50;;;;;;5020036;28;20162;-89
2020/12/01 10:18:55;;;;;;;6.05;3.00;;;17.70;50.80;;;;;;4937831;29;20701;-87
2020/12/01 10:37:15;;;;;;;6.57;2.80;;;17.60;50.80;;;;;;4949624;28;20185;-89
2020/12/01 10:39:53;;;;;;;7.25;3.00;;;17.70;50.30;;;;;;4947091;28;20168;-88
2020/12/01 10:42:25;;;;;;;3.72;2.80;;;17.70;50.40;;;;;;4962684;28;20216;-87
2020/12/01 10:44:52;;;;;;;5.20;2.88;;;17.80;50.20;;;;;;4961927;28;20211;-86
2020/12/01 10:47:25;;;;;;;6.07;3.00;;;17.70;50.30;;;;;;4970240;28;20212;-87
2020/12/01 10:49:50;;;;;;;4.80;2.72;;;17.70;50.60;;;;;;5031295;28;20181;-88
2020/12/01 10:52:17;;;;;;;3.72;2.97;;;17.60;50.50;;;;;;5043577;28;20246;-86
2020/12/01 10:54:45;;;;;;;4.85;2.97;;;17.70;50.40;;;;;;5061299;28;20162;-89
2020/12/01 10:57:16;;;;;;;3.70;2.90;;;17.70;50.20;;;;;;5028346;28;20178;-87
2020/12/01 10:59:43;;;;;;;5.32;2.85;;;17.70;50.50;;;;;;5063672;28;20604;-87
2020/12/01 11:02:09;;;;;;;5.25;3.05;;;17.70;50.60;;;;;;5063260;28;20217;-87
2020/12/01 11:04:37;;;;;;;6.00;2.83;;;17.70;50.40;;;;;;5061748;28;20600;-88
2020/12/01 11:07:05;;;;;;;7.60;2.80;;;17.80;50.10;;;;;;5061735;28;20177;-88
2020/12/01 11:09:36;;;;;;;4.63;3.00;;;17.90;49.70;;;;;;5061064;28;20182;-89
2020/12/01 11:12:19;;;;;;;4.63;2.67;;;17.80;50.10;;;;;;5062021;28;20216;-88
2020/12/01 11:14:49;;;;;;;4.10;2.90;;;17.80;50.30;;;;;;5061573;28;20185;-89
2020/12/01 11:17:17;;;;;;;3.70;2.78;;;17.80;50.20;;;;;;5042631;28;20172;-88
2020/12/01 11:19:52;;;;;;;5.18;3.22;;;17.80;50.10;;;;;;5060627;28;20166;-88
2020/12/01 11:22:27;;;;;;;4.30;3.00;;;17.80;50.10;;;;;;5062613;28;20639;-89
2020/12/01 11:24:53;;;;;;;3.67;2.67;;;17.80;50.80;;;;;;5060625;28;20169;-88
2020/12/01 11:27:21;;;;;;;4.15;3.00;;;17.80;50.30;;;;;;5059458;28;20154;-88
2020/12/01 11:29:47;;;;;;;4.70;3.05;;;17.80;50.20;;;;;;5060303;28;20260;-88
2020/12/01 11:32:14;;;;;;;4.20;2.65;;;17.80;50.40;;;;;;5059921;28;20664;-87
2020/12/01 11:34:40;;;;;;;4.32;2.65;;;17.80;50.50;;;;;;5058920;28;20170;-88
2020/12/01 11:37:05;;;;;;;3.50;2.65;;;17.70;50.50;;;;;;5059349;28;20530;-87
2020/12/01 11:39:38;;;;;;;4.13;2.83;;;17.70;50.50;;;;;;5059747;28;20173;-88
2020/12/01 11:42:09;;;;;;;4.65;2.70;;;17.80;50.30;;;;;;5060460;28;20230;-88
2020/12/01 11:44:35;;;;;;;6.28;2.83;;;17.80;50.30;;;;;;5058758;28;20184;-88
2020/12/01 11:47:03;;;;;;;3.13;2.70;;;17.80;50.30;;;;;;5077644;28;20162;-88
2020/12/01 11:49:31;;;;;;;5.55;2.70;;;17.80;50.30;;;;;;5061080;28;20170;-88
2020/12/01 11:51:58;;;;;;;4.60;3.00;;;17.80;50.10;;;;;;5028678;28;20201;-88
2020/12/01 11:54:24;;;;;;;3.60;2.83;;;17.80;50.40;;;;;;5062689;28;20169;-88
2020/12/01 11:56:51;;;;;;;3.33;2.67;;;17.80;50.30;;;;;;5062015;28;20212;-88
2020/12/01 11:59:20;;;;;;;4.45;3.00;;;17.80;50.20;;;;;;5061862;28;20632;-87
2020/12/01 12:01:52;;;;;;;3.78;2.60;;;17.80;50.30;;;;;;5044488;28;20170;-88
2020/12/01 12:04:21;;;;;;;4.18;3.25;;;17.80;50.10;;;;;;5063231;28;20204;-88
2020/12/01 12:06:49;;;;;;;3.47;2.72;;;17.80;50.40;;;;;;5070197;28;20189;-89
2020/12/01 12:09:58;;;;;;;3.88;2.72;;;17.80;50.20;;;;;;5061390;28;20166;-89
2020/12/01 12:13:08;;;;;;;5.75;3.03;;;17.90;50.10;;;;;;5070345;28;20245;-88
2020/12/01 12:16:09;;;;;;;3.65;2.80;;;17.80;50.60;;;;;;5001981;28;20279;-88
2020/12/01 12:19:03;;;;;;;4.22;3.00;;;17.80;50.40;;;;;;4986930;28;20184;-88
2020/12/01 12:22:23;;;;;;;4.38;3.10;;;17.80;50.30;;;;;;4970146;28;20271;-89
2020/12/01 12:25:57;;;;;;;;;;;;;;;;;;;;;
2020/12/01 12:29:04;;;;;;;3.50;2.70;;;17.80;50.20;;;;;;4945038;29;20277;-88
2020/12/01 12:31:56;;;;;;;4.80;3.00;;;17.90;50.10;;;;;;4915236;29;20218;-89
2020/12/01 12:34:45;;;;;;;4.00;2.97;;;17.80;50.30;;;;;;4913343;29;20189;-88
2020/12/01 12:38:16;;;;;;;3.40;2.65;;;17.80;51.00;;;;;;4910263;29;20232;-88
2020/12/01 12:41:32;;;;;;;;;;;;;;;;;;;;;
2020/12/01 12:45:00;;;;;;;;;;;;;;;;;;;;;
2020/12/01 12:47:36;;;;;;;2.70;2.40;;;17.70;50.50;;;;;;4850241;29;20272;-88
2020/12/01 12:50:11;;;;;;;3.67;3.00;;;17.80;50.30;;;;;;4836149;29;20189;-88
2020/12/01 12:52:44;;;;;;;2.85;2.55;;;17.80;50.30;;;;;;4832879;29;20576;-90
2020/12/01 12:55:11;;;;;;;3.28;2.90;;;17.80;50.50;;;;;;4804453;29;20177;-88
2020/12/01 12:57:49;;;;;;;3.05;2.50;;;17.80;50.40;;;;;;4832802;29;20268;-88
2020/12/01 13:00:22;;;;;;;3.50;2.92;;;17.80;50.10;;;;;;4833705;29;20708;-89
2020/12/01 13:03:02;;;;;;;3.38;2.70;;;17.80;50.00;;;;;;4832668;29;20173;-89
2020/12/01 13:05:41;;;;;;;4.45;3.30;;;17.90;49.90;;;;;;4932468;29;20668;-89
2020/12/01 13:08:16;;;;;;;3.90;2.90;;;17.90;50.00;;;;;;4912589;29;20185;-89
2020/12/01 13:10:45;;;;;;;3.75;3.03;;;17.90;50.20;;;;;;4914233;29;20192;-89
2020/12/01 13:13:13;;;;;;;3.55;2.60;;;17.90;50.10;;;;;;4913190;29;20204;-89
2020/12/01 13:16:08;;;;;;;3.30;2.95;;;17.90;49.80;;;;;;4945877;28;20180;-89
2020/12/01 13:18:34;;;;;;;4.10;2.92;;;17.80;50.00;;;;;;4981093;28;20588;-88
2020/12/01 13:21:01;;;;;;;4.03;2.88;;;17.80;50.70;;;;;;4978853;28;20191;-88
2020/12/01 13:23:28;;;;;;;2.95;2.65;;;17.80;50.10;;;;;;4992686;28;20181;-88
2020/12/01 13:26:05;;;;;;;3.28;2.88;;;17.90;49.70;;;;;;5055957;28;20171;-88
2020/12/01 13:28:34;;;;;;;3.30;2.90;;;18.00;49.60;;;;;;5053585;28;20264;-88
2020/12/01 13:31:02;;;;;;;4.88;3.15;;;18.00;49.70;;;;;;5040427;28;20182;-89
2020/12/01 13:33:38;;;;;;;4.50;3.10;;;17.90;49.80;;;;;;5055976;28;20205;-89
2020/12/01 13:36:29;;;;;;;4.03;2.88;;;17.90;50.10;;;;;;5052946;28;20181;-88
2020/12/01 13:39:05;;;;;;;3.38;2.60;;;17.70;50.40;;;;;;5041879;28;20180;-89
2020/12/01 13:42:15;;;;;;;3.70;2.90;;;17.80;50.00;;;;;;5072842;28;20150;-88
2020/12/01 13:44:44;;;;;;;3.45;2.63;;;17.80;50.10;;;;;;5018177;28;20194;-89
2020/12/01 13:47:12;;;;;;;3.75;2.80;;;17.80;49.90;;;;;;5033369;28;20166;-88
2020/12/01 13:49:40;;;;;;;3.70;3.00;;;17.90;49.80;;;;;;5005245;28;20183;-89
2020/12/01 13:52:08;;;;;;;3.05;2.58;;;17.90;49.70;;;;;;4985407;28;20183;-88
2020/12/01 13:54:45;;;;;;;3.00;2.60;;;17.90;49.60;;;;;;5001985;28;20715;-88
2020/12/01 13:57:20;;;;;;;3.42;2.60;;;17.90;49.80;;;;;;5001608;28;20169;-88
2020/12/01 13:59:46;;;;;;;3.30;2.97;;;17.90;49.60;;;;;;5035123;28;20150;-88
2020/12/01 14:02:19;;;;;;;4.05;2.55;;;18.00;49.50;;;;;;5019068;28;20186;-89
2020/12/01 14:04:50;;;;;;;2.95;2.60;;;18.00;49.20;;;;;;5034789;28;20349;-89
2020/12/01 14:07:22;;;;;;;3.28;2.45;;;18.00;49.30;;;;;;5017235;28;20166;-88
2020/12/01 14:09:48;;;;;;;3.28;2.70;;;18.00;49.60;;;;;;5035473;28;20215;-88
2020/12/01 14:12:17;;;;;;;9.85;2.88;;;17.90;49.80;;;;;;5003413;28;20190;-88
2020/12/01 14:14:43;;;;;;;4.13;3.00;;;17.90;49.80;;;;;;5003610;28;20544;-88